sensor_id;sensor_type;location;lat;lon;timestamp;P1;durP1;ratioP1;P2;durP2;ratioP2
12177;SDS011;6152;48.728;9.256;2022-10-31T00:01:44;12.45;;;6.30;;
12177;SDS011;6152;48.728;9.256;2022-10-31T00:04:10;11.23;;;6.45;;
12177;SDS011;6152;48.728;9.256;2022-10-31T00:06:36;11.02;;;6.60;;
12177;SDS011;6152;48.728;9.256;2022-10-31T00:09:03;9.13;;;6.88;;
12177;SDS011;6152;48.728;9.256;2022-10-31T00:11:29;10.80;;;6.60;;
12177;SDS011;6152;48.728;9.256;2022-10-31T00:13:58;10.93;;;6.55;;
12177;SDS011;6152;48.728;9.256;2022-10-31T00:16:25;10.40;;;6.82;;
12177;SDS011;6152;48.728;9.256;2022-10-31T00:18:52;10.00;;;6.20;;
12177;SDS011;6152;48.728;9.256;2022-10-31T00:21:21;10.73;;;6.55;;
12177;SDS011;6152;48.728;9.256;2022-10-31T00:23:48;10.15;;;6.82;;
12177;SDS011;6152;48.728;9.256;2022-10-31T00:26:14;11.63;;;7.05;;
12177;SDS011;6152;48.728;9.256;2022-10-31T00:28:41;9.63;;;6.50;;
12177;SDS011;6152;48.728;9.256;2022-10-31T00:31:08;12.48;;;6.43;;
12177;SDS011;6152;48.728;9.256;2022-10-31T00:33:36;12.20;;;7.22;;
12177;SDS011;6152;48.728;9.256;2022-10-31T00:36:03;12.63;;;6.78;;
12177;SDS011;6152;48.728;9.256;2022-10-31T00:38:31;10.82;;;6.55;;
12177;SDS011;6152;48.728;9.256;2022-10-31T00:40:57;9.43;;;6.82;;
12177;SDS011;6152;48.728;9.256;2022-10-31T00:43:23;13.70;;;7.05;;
12177;SDS011;6152;48.728;9.256;2022-10-31T00:45:49;10.43;;;7.05;;
12177;SDS011;6152;48.728;9.256;2022-10-31T00:48:15;12.02;;;7.30;;
12177;SDS011;6152;48.728;9.256;2022-10-31T00:50:42;14.07;;;6.97;;
12177;SDS011;6152;48.728;9.256;2022-10-31T00:53:08;10.90;;;7.05;;
12177;SDS011;6152;48.728;9.256;2022-10-31T00:55:34;12.20;;;8.20;;
12177;SDS011;6152;48.728;9.256;2022-10-31T00:58:00;10.48;;;7.63;;
12177;SDS011;6152;48.728;9.256;2022-10-31T01:00:26;11.00;;;7.55;;
12177;SDS011;6152;48.728;9.256;2022-10-31T01:02:52;14.20;;;7.32;;
12177;SDS011;6152;48.728;9.256;2022-10-31T01:05:19;16.02;;;7.72;;
12177;SDS011;6152;48.728;9.256;2022-10-31T01:07:45;7.75;;;6.57;;
12177;SDS011;6152;48.728;9.256;2022-10-31T01:10:11;11.93;;;7.30;;
12177;SDS011;6152;48.728;9.256;2022-10-31T01:12:38;11.18;;;7.22;;
12177;SDS011;6152;48.728;9.256;2022-10-31T01:15:06;10.10;;;7.03;;
12177;SDS011;6152;48.728;9.256;2022-10-31T01:17:34;9.20;;;6.70;;
12177;SDS011;6152;48.728;9.256;2022-10-31T01:20:00;8.68;;;7.35;;
12177;SDS011;6152;48.728;9.256;2022-10-31T01:22:27;10.02;;;7.03;;
12177;SDS011;6152;48.728;9.256;2022-10-31T01:24:53;12.02;;;7.78;;
12177;SDS011;6152;48.728;9.256;2022-10-31T01:27:19;11.68;;;7.43;;
12177;SDS011;6152;48.728;9.256;2022-10-31T01:29:45;10.73;;;7.53;;
12177;SDS011;6152;48.728;9.256;2022-10-31T01:32:11;9.05;;;6.90;;
12177;SDS011;6152;48.728;9.256;2022-10-31T01:34:37;8.52;;;7.05;;
12177;SDS011;6152;48.728;9.256;2022-10-31T01:37:03;9.52;;;6.97;;
12177;SDS011;6152;48.728;9.256;2022-10-31T01:39:29;8.38;;;6.97;;
12177;SDS011;6152;48.728;9.256;2022-10-31T01:41:56;12.35;;;7.00;;
12177;SDS011;6152;48.728;9.256;2022-10-31T01:46:49;7.07;;;6.15;;
12177;SDS011;6152;48.728;9.256;2022-10-31T01:49:34;10.52;;;7.25;;
12177;SDS011;6152;48.728;9.256;2022-10-31T01:55:12;10.52;;;6.63;;
12177;SDS011;6152;48.728;9.256;2022-10-31T01:57:46;12.90;;;6.45;;
12177;SDS011;6152;48.728;9.256;2022-10-31T02:00:15;10.27;;;6.20;;
12177;SDS011;6152;48.728;9.256;2022-10-31T02:02:43;12.00;;;6.10;;
12177;SDS011;6152;48.728;9.256;2022-10-31T02:05:19;7.97;;;5.95;;
12177;SDS011;6152;48.728;9.256;2022-10-31T02:07:55;10.10;;;5.90;;
12177;SDS011;6152;48.728;9.256;2022-10-31T02:10:44;9.93;;;6.00;;
12177;SDS011;6152;48.728;9.256;2022-10-31T02:13:10;8.85;;;5.53;;
12177;SDS011;6152;48.728;9.256;2022-10-31T02:15:38;11.70;;;5.80;;
12177;SDS011;6152;48.728;9.256;2022-10-31T02:18:05;10.60;;;5.72;;
12177;SDS011;6152;48.728;9.256;2022-10-31T02:20:42;8.77;;;5.72;;
12177;SDS011;6152;48.728;9.256;2022-10-31T02:30:20;7.95;;;5.40;;
12177;SDS011;6152;48.728;9.256;2022-10-31T02:38:33;8.43;;;5.20;;
12177;SDS011;6152;48.728;9.256;2022-10-31T02:41:18;7.65;;;5.18;;
12177;SDS011;6152;48.728;9.256;2022-10-31T02:46:36;9.52;;;4.97;;
12177;SDS011;6152;48.728;9.256;2022-10-31T02:49:22;6.65;;;5.22;;
12177;SDS011;6152;48.728;9.256;2022-10-31T02:51:52;7.43;;;5.50;;
12177;SDS011;6152;48.728;9.256;2022-10-31T02:54:19;8.65;;;5.13;;
12177;SDS011;6152;48.728;9.256;2022-10-31T02:56:48;11.25;;;5.63;;
12177;SDS011;6152;48.728;9.256;2022-10-31T02:59:18;7.22;;;5.30;;
12177;SDS011;6152;48.728;9.256;2022-10-31T03:15:26;8.85;;;5.45;;
12177;SDS011;6152;48.728;9.256;2022-10-31T03:18:32;7.68;;;5.00;;
12177;SDS011;6152;48.728;9.256;2022-10-31T03:21:09;7.57;;;5.05;;
12177;SDS011;6152;48.728;9.256;2022-10-31T03:23:39;9.38;;;5.80;;
12177;SDS011;6152;48.728;9.256;2022-10-31T03:26:08;8.05;;;6.03;;
12177;SDS011;6152;48.728;9.256;2022-10-31T03:28:48;7.22;;;5.15;;
12177;SDS011;6152;48.728;9.256;2022-10-31T03:31:22;9.50;;;5.65;;
12177;SDS011;6152;48.728;9.256;2022-10-31T03:33:54;6.88;;;4.97;;
12177;SDS011;6152;48.728;9.256;2022-10-31T03:36:23;6.90;;;5.40;;
12177;SDS011;6152;48.728;9.256;2022-10-31T03:38:51;9.07;;;5.50;;
12177;SDS011;6152;48.728;9.256;2022-10-31T03:41:19;5.40;;;4.78;;
12177;SDS011;6152;48.728;9.256;2022-10-31T03:43:52;8.80;;;6.22;;
12177;SDS011;6152;48.728;9.256;2022-10-31T03:46:25;8.07;;;5.15;;
12177;SDS011;6152;48.728;9.256;2022-10-31T03:48:52;7.22;;;5.05;;
12177;SDS011;6152;48.728;9.256;2022-10-31T03:51:36;7.72;;;5.47;;
12177;SDS011;6152;48.728;9.256;2022-10-31T04:00:04;6.32;;;4.70;;
12177;SDS011;6152;48.728;9.256;2022-10-31T04:02:38;6.97;;;4.78;;
12177;SDS011;6152;48.728;9.256;2022-10-31T04:05:09;12.70;;;5.65;;
12177;SDS011;6152;48.728;9.256;2022-10-31T04:07:39;9.60;;;5.45;;
12177;SDS011;6152;48.728;9.256;2022-10-31T04:10:10;7.68;;;5.43;;
12177;SDS011;6152;48.728;9.256;2022-10-31T04:12:40;8.93;;;4.60;;
12177;SDS011;6152;48.728;9.256;2022-10-31T04:15:09;7.45;;;4.68;;
12177;SDS011;6152;48.728;9.256;2022-10-31T04:17:37;7.43;;;4.85;;
12177;SDS011;6152;48.728;9.256;2022-10-31T04:20:07;5.68;;;4.60;;
12177;SDS011;6152;48.728;9.256;2022-10-31T04:22:33;7.03;;;4.82;;
12177;SDS011;6152;48.728;9.256;2022-10-31T04:25:00;7.20;;;5.07;;
12177;SDS011;6152;48.728;9.256;2022-10-31T04:27:26;5.60;;;4.05;;
12177;SDS011;6152;48.728;9.256;2022-10-31T04:29:52;7.00;;;4.68;;
12177;SDS011;6152;48.728;9.256;2022-10-31T04:32:18;9.20;;;5.35;;
12177;SDS011;6152;48.728;9.256;2022-10-31T04:34:44;7.10;;;4.82;;
12177;SDS011;6152;48.728;9.256;2022-10-31T04:37:10;7.82;;;4.65;;
12177;SDS011;6152;48.728;9.256;2022-10-31T04:39:36;5.38;;;4.88;;
12177;SDS011;6152;48.728;9.256;2022-10-31T04:42:02;11.15;;;5.38;;
12177;SDS011;6152;48.728;9.256;2022-10-31T04:44:28;6.68;;;4.63;;
12177;SDS011;6152;48.728;9.256;2022-10-31T04:46:54;5.55;;;4.50;;
12177;SDS011;6152;48.728;9.256;2022-10-31T04:49:21;11.15;;;4.70;;
12177;SDS011;6152;48.728;9.256;2022-10-31T04:51:47;5.72;;;4.78;;
12177;SDS011;6152;48.728;9.256;2022-10-31T04:54:13;8.90;;;5.15;;
12177;SDS011;6152;48.728;9.256;2022-10-31T04:56:39;8.63;;;5.03;;
12177;SDS011;6152;48.728;9.256;2022-10-31T04:59:05;7.97;;;5.28;;
12177;SDS011;6152;48.728;9.256;2022-10-31T05:01:31;8.27;;;4.80;;
12177;SDS011;6152;48.728;9.256;2022-10-31T05:03:57;6.93;;;4.85;;
12177;SDS011;6152;48.728;9.256;2022-10-31T05:06:23;6.80;;;5.03;;
12177;SDS011;6152;48.728;9.256;2022-10-31T05:08:49;8.20;;;5.10;;
12177;SDS011;6152;48.728;9.256;2022-10-31T05:11:16;9.25;;;5.20;;
12177;SDS011;6152;48.728;9.256;2022-10-31T05:13:42;6.50;;;5.07;;
12177;SDS011;6152;48.728;9.256;2022-10-31T05:16:08;8.27;;;4.75;;
12177;SDS011;6152;48.728;9.256;2022-10-31T05:18:34;5.68;;;4.53;;
12177;SDS011;6152;48.728;9.256;2022-10-31T05:21:00;6.70;;;4.90;;
12177;SDS011;6152;48.728;9.256;2022-10-31T05:23:26;15.18;;;5.53;;
12177;SDS011;6152;48.728;9.256;2022-10-31T05:25:52;11.40;;;4.78;;
12177;SDS011;6152;48.728;9.256;2022-10-31T05:28:18;8.80;;;4.88;;
12177;SDS011;6152;48.728;9.256;2022-10-31T05:30:44;9.85;;;5.43;;
12177;SDS011;6152;48.728;9.256;2022-10-31T05:33:10;6.82;;;4.90;;
12177;SDS011;6152;48.728;9.256;2022-10-31T05:35:37;5.88;;;5.00;;
12177;SDS011;6152;48.728;9.256;2022-10-31T05:38:03;5.15;;;4.32;;
12177;SDS011;6152;48.728;9.256;2022-10-31T05:40:29;7.60;;;4.78;;
12177;SDS011;6152;48.728;9.256;2022-10-31T05:42:57;5.78;;;4.88;;
12177;SDS011;6152;48.728;9.256;2022-10-31T05:45:24;6.97;;;4.65;;
12177;SDS011;6152;48.728;9.256;2022-10-31T05:48:00;13.20;;;5.38;;
12177;SDS011;6152;48.728;9.256;2022-10-31T05:50:27;9.65;;;5.18;;
12177;SDS011;6152;48.728;9.256;2022-10-31T05:52:58;9.40;;;4.90;;
12177;SDS011;6152;48.728;9.256;2022-10-31T05:55:26;5.60;;;4.45;;
12177;SDS011;6152;48.728;9.256;2022-10-31T05:57:53;7.07;;;4.90;;
12177;SDS011;6152;48.728;9.256;2022-10-31T06:00:20;6.95;;;4.97;;
12177;SDS011;6152;48.728;9.256;2022-10-31T06:02:47;7.35;;;4.90;;
12177;SDS011;6152;48.728;9.256;2022-10-31T06:05:13;9.45;;;5.20;;
12177;SDS011;6152;48.728;9.256;2022-10-31T06:07:40;7.20;;;4.95;;
12177;SDS011;6152;48.728;9.256;2022-10-31T06:10:06;6.95;;;4.85;;
12177;SDS011;6152;48.728;9.256;2022-10-31T06:12:33;7.32;;;4.75;;
12177;SDS011;6152;48.728;9.256;2022-10-31T06:15:03;6.22;;;4.32;;
12177;SDS011;6152;48.728;9.256;2022-10-31T06:17:30;5.95;;;4.25;;
12177;SDS011;6152;48.728;9.256;2022-10-31T06:19:57;5.68;;;4.68;;
12177;SDS011;6152;48.728;9.256;2022-10-31T06:22:23;7.53;;;5.03;;
12177;SDS011;6152;48.728;9.256;2022-10-31T06:24:49;12.60;;;4.60;;
12177;SDS011;6152;48.728;9.256;2022-10-31T06:27:16;15.70;;;4.85;;
12177;SDS011;6152;48.728;9.256;2022-10-31T06:29:42;7.15;;;4.57;;
12177;SDS011;6152;48.728;9.256;2022-10-31T06:32:11;6.53;;;4.40;;
12177;SDS011;6152;48.728;9.256;2022-10-31T06:34:38;7.10;;;4.10;;
12177;SDS011;6152;48.728;9.256;2022-10-31T06:37:08;13.95;;;4.88;;
12177;SDS011;6152;48.728;9.256;2022-10-31T06:39:35;4.70;;;4.20;;
12177;SDS011;6152;48.728;9.256;2022-10-31T06:42:02;4.15;;;3.53;;
12177;SDS011;6152;48.728;9.256;2022-10-31T06:44:28;4.53;;;4.10;;
12177;SDS011;6152;48.728;9.256;2022-10-31T06:46:55;4.88;;;4.30;;
12177;SDS011;6152;48.728;9.256;2022-10-31T06:49:21;4.18;;;3.58;;
12177;SDS011;6152;48.728;9.256;2022-10-31T06:51:48;6.90;;;5.10;;
12177;SDS011;6152;48.728;9.256;2022-10-31T06:54:15;6.25;;;4.32;;
12177;SDS011;6152;48.728;9.256;2022-10-31T06:56:41;8.98;;;4.85;;
12177;SDS011;6152;48.728;9.256;2022-10-31T06:59:10;12.05;;;5.20;;
12177;SDS011;6152;48.728;9.256;2022-10-31T07:01:36;17.88;;;5.47;;
12177;SDS011;6152;48.728;9.256;2022-10-31T07:04:02;8.43;;;4.55;;
12177;SDS011;6152;48.728;9.256;2022-10-31T07:06:28;6.45;;;4.38;;
12177;SDS011;6152;48.728;9.256;2022-10-31T07:08:54;9.38;;;5.28;;
12177;SDS011;6152;48.728;9.256;2022-10-31T07:11:20;7.43;;;5.00;;
12177;SDS011;6152;48.728;9.256;2022-10-31T07:13:46;6.57;;;4.65;;
12177;SDS011;6152;48.728;9.256;2022-10-31T07:16:12;6.95;;;4.60;;
12177;SDS011;6152;48.728;9.256;2022-10-31T07:18:39;7.05;;;5.47;;
12177;SDS011;6152;48.728;9.256;2022-10-31T07:21:05;6.60;;;4.78;;
12177;SDS011;6152;48.728;9.256;2022-10-31T07:23:31;8.93;;;5.32;;
12177;SDS011;6152;48.728;9.256;2022-10-31T07:25:58;6.00;;;4.63;;
12177;SDS011;6152;48.728;9.256;2022-10-31T07:28:25;6.40;;;4.43;;
12177;SDS011;6152;48.728;9.256;2022-10-31T07:30:52;5.05;;;4.55;;
12177;SDS011;6152;48.728;9.256;2022-10-31T07:33:19;7.90;;;4.63;;
12177;SDS011;6152;48.728;9.256;2022-10-31T07:35:46;5.50;;;4.25;;
12177;SDS011;6152;48.728;9.256;2022-10-31T07:38:13;6.90;;;4.47;;
12177;SDS011;6152;48.728;9.256;2022-10-31T07:40:40;5.05;;;4.00;;
12177;SDS011;6152;48.728;9.256;2022-10-31T07:43:07;6.22;;;4.50;;
12177;SDS011;6152;48.728;9.256;2022-10-31T07:45:35;9.20;;;4.35;;
12177;SDS011;6152;48.728;9.256;2022-10-31T07:48:01;5.00;;;4.40;;
12177;SDS011;6152;48.728;9.256;2022-10-31T07:50:28;6.30;;;4.35;;
12177;SDS011;6152;48.728;9.256;2022-10-31T07:53:09;10.88;;;4.75;;
12177;SDS011;6152;48.728;9.256;2022-10-31T07:55:36;4.30;;;3.90;;
12177;SDS011;6152;48.728;9.256;2022-10-31T07:58:07;5.05;;;4.43;;
12177;SDS011;6152;48.728;9.256;2022-10-31T08:00:38;8.93;;;3.83;;
12177;SDS011;6152;48.728;9.256;2022-10-31T08:03:06;7.13;;;4.05;;
12177;SDS011;6152;48.728;9.256;2022-10-31T08:05:37;5.18;;;3.65;;
12177;SDS011;6152;48.728;9.256;2022-10-31T08:08:05;5.78;;;4.05;;
12177;SDS011;6152;48.728;9.256;2022-10-31T08:10:32;7.40;;;4.28;;
12177;SDS011;6152;48.728;9.256;2022-10-31T08:13:03;10.57;;;4.47;;
12177;SDS011;6152;48.728;9.256;2022-10-31T08:15:31;5.45;;;3.72;;
12177;SDS011;6152;48.728;9.256;2022-10-31T08:17:59;6.00;;;3.83;;
12177;SDS011;6152;48.728;9.256;2022-10-31T08:20:26;5.25;;;3.10;;
12177;SDS011;6152;48.728;9.256;2022-10-31T08:23:00;5.72;;;3.88;;
12177;SDS011;6152;48.728;9.256;2022-10-31T08:25:28;3.80;;;3.03;;
12177;SDS011;6152;48.728;9.256;2022-10-31T08:27:57;4.85;;;3.85;;
12177;SDS011;6152;48.728;9.256;2022-10-31T08:30:27;6.70;;;3.90;;
12177;SDS011;6152;48.728;9.256;2022-10-31T08:35:24;4.88;;;3.40;;
12177;SDS011;6152;48.728;9.256;2022-10-31T08:37:53;6.90;;;3.65;;
12177;SDS011;6152;48.728;9.256;2022-10-31T08:40:20;7.78;;;3.70;;
12177;SDS011;6152;48.728;9.256;2022-10-31T08:42:47;7.07;;;3.70;;
12177;SDS011;6152;48.728;9.256;2022-10-31T08:45:20;4.63;;;3.08;;
12177;SDS011;6152;48.728;9.256;2022-10-31T08:47:46;6.22;;;3.10;;
12177;SDS011;6152;48.728;9.256;2022-10-31T08:50:12;6.30;;;3.45;;
12177;SDS011;6152;48.728;9.256;2022-10-31T08:52:38;6.43;;;4.20;;
12177;SDS011;6152;48.728;9.256;2022-10-31T08:55:05;8.68;;;3.70;;
12177;SDS011;6152;48.728;9.256;2022-10-31T08:57:31;5.25;;;4.28;;
12177;SDS011;6152;48.728;9.256;2022-10-31T08:59:57;5.63;;;3.55;;
12177;SDS011;6152;48.728;9.256;2022-10-31T09:02:23;8.23;;;2.90;;
12177;SDS011;6152;48.728;9.256;2022-10-31T09:04:49;4.60;;;3.63;;
12177;SDS011;6152;48.728;9.256;2022-10-31T09:07:15;3.85;;;3.25;;
12177;SDS011;6152;48.728;9.256;2022-10-31T09:09:41;5.43;;;3.78;;
12177;SDS011;6152;48.728;9.256;2022-10-31T09:12:08;7.00;;;3.83;;
12177;SDS011;6152;48.728;9.256;2022-10-31T09:14:34;7.45;;;3.20;;
12177;SDS011;6152;48.728;9.256;2022-10-31T09:17:00;6.43;;;3.45;;
12177;SDS011;6152;48.728;9.256;2022-10-31T09:19:26;5.97;;;3.88;;
12177;SDS011;6152;48.728;9.256;2022-10-31T09:21:53;4.72;;;3.50;;
12177;SDS011;6152;48.728;9.256;2022-10-31T09:24:19;7.47;;;3.90;;
12177;SDS011;6152;48.728;9.256;2022-10-31T09:26:45;3.70;;;3.25;;
12177;SDS011;6152;48.728;9.256;2022-10-31T09:29:11;6.50;;;3.90;;
12177;SDS011;6152;48.728;9.256;2022-10-31T09:31:38;5.43;;;3.13;;
12177;SDS011;6152;48.728;9.256;2022-10-31T09:34:04;5.07;;;3.42;;
12177;SDS011;6152;48.728;9.256;2022-10-31T09:36:30;4.60;;;3.88;;
12177;SDS011;6152;48.728;9.256;2022-10-31T09:38:56;3.47;;;3.17;;
12177;SDS011;6152;48.728;9.256;2022-10-31T09:41:24;6.70;;;3.45;;
12177;SDS011;6152;48.728;9.256;2022-10-31T09:46:59;6.85;;;3.83;;
12177;SDS011;6152;48.728;9.256;2022-10-31T09:52:21;6.30;;;5.00;;
12177;SDS011;6152;48.728;9.256;2022-10-31T09:55:00;6.30;;;4.85;;
12177;SDS011;6152;48.728;9.256;2022-10-31T09:57:39;8.93;;;5.57;;
12177;SDS011;6152;48.728;9.256;2022-10-31T10:00:14;7.05;;;5.20;;
12177;SDS011;6152;48.728;9.256;2022-10-31T10:05:41;8.18;;;4.88;;
12177;SDS011;6152;48.728;9.256;2022-10-31T10:08:27;6.90;;;4.30;;
12177;SDS011;6152;48.728;9.256;2022-10-31T10:25:09;7.15;;;4.10;;
12177;SDS011;6152;48.728;9.256;2022-10-31T10:27:49;6.57;;;3.75;;
12177;SDS011;6152;48.728;9.256;2022-10-31T10:30:35;9.13;;;4.13;;
12177;SDS011;6152;48.728;9.256;2022-10-31T10:33:11;6.90;;;3.85;;
12177;SDS011;6152;48.728;9.256;2022-10-31T10:35:53;5.40;;;3.40;;
12177;SDS011;6152;48.728;9.256;2022-10-31T10:38:39;7.90;;;3.97;;
12177;SDS011;6152;48.728;9.256;2022-10-31T10:41:20;5.30;;;3.78;;
12177;SDS011;6152;48.728;9.256;2022-10-31T10:43:49;6.53;;;3.70;;
12177;SDS011;6152;48.728;9.256;2022-10-31T10:46:18;5.30;;;3.47;;
12177;SDS011;6152;48.728;9.256;2022-10-31T10:49:35;5.65;;;3.60;;
12177;SDS011;6152;48.728;9.256;2022-10-31T10:52:27;5.97;;;4.07;;
12177;SDS011;6152;48.728;9.256;2022-10-31T10:55:24;6.88;;;3.67;;
12177;SDS011;6152;48.728;9.256;2022-10-31T10:58:08;7.95;;;3.95;;
12177;SDS011;6152;48.728;9.256;2022-10-31T11:00:36;7.50;;;3.90;;
12177;SDS011;6152;48.728;9.256;2022-10-31T11:03:05;4.78;;;3.80;;
12177;SDS011;6152;48.728;9.256;2022-10-31T11:08:11;5.57;;;4.05;;
12177;SDS011;6152;48.728;9.256;2022-10-31T11:10:55;7.20;;;3.63;;
12177;SDS011;6152;48.728;9.256;2022-10-31T11:13:34;9.88;;;5.00;;
12177;SDS011;6152;48.728;9.256;2022-10-31T11:16:07;11.82;;;6.85;;
12177;SDS011;6152;48.728;9.256;2022-10-31T11:18:42;9.40;;;4.57;;
12177;SDS011;6152;48.728;9.256;2022-10-31T11:21:19;5.07;;;3.70;;
12177;SDS011;6152;48.728;9.256;2022-10-31T11:24:03;5.97;;;3.83;;
12177;SDS011;6152;48.728;9.256;2022-10-31T11:26:33;5.72;;;4.03;;
12177;SDS011;6152;48.728;9.256;2022-10-31T11:29:00;7.22;;;5.15;;
12177;SDS011;6152;48.728;9.256;2022-10-31T11:31:30;12.10;;;7.93;;
12177;SDS011;6152;48.728;9.256;2022-10-31T11:34:00;23.05;;;12.85;;
12177;SDS011;6152;48.728;9.256;2022-10-31T11:36:29;22.60;;;16.75;;
12177;SDS011;6152;48.728;9.256;2022-10-31T11:38:59;25.33;;;15.52;;
12177;SDS011;6152;48.728;9.256;2022-10-31T11:41:28;17.65;;;11.38;;
12177;SDS011;6152;48.728;9.256;2022-10-31T11:43:59;24.38;;;16.60;;
12177;SDS011;6152;48.728;9.256;2022-10-31T11:49:13;21.38;;;14.90;;
12177;SDS011;6152;48.728;9.256;2022-10-31T11:51:42;20.70;;;14.27;;
12177;SDS011;6152;48.728;9.256;2022-10-31T11:54:17;10.95;;;8.20;;
12177;SDS011;6152;48.728;9.256;2022-10-31T11:56:54;8.65;;;4.30;;
12177;SDS011;6152;48.728;9.256;2022-10-31T11:59:25;7.53;;;4.13;;
12177;SDS011;6152;48.728;9.256;2022-10-31T12:01:54;6.30;;;3.88;;
12177;SDS011;6152;48.728;9.256;2022-10-31T12:04:34;5.28;;;3.85;;
12177;SDS011;6152;48.728;9.256;2022-10-31T12:07:09;8.45;;;4.13;;
12177;SDS011;6152;48.728;9.256;2022-10-31T12:09:36;7.20;;;4.10;;
12177;SDS011;6152;48.728;9.256;2022-10-31T12:12:25;6.85;;;3.85;;
12177;SDS011;6152;48.728;9.256;2022-10-31T12:45:44;6.13;;;3.83;;
12177;SDS011;6152;48.728;9.256;2022-10-31T12:48:37;8.05;;;4.03;;
12177;SDS011;6152;48.728;9.256;2022-10-31T13:00:22;12.07;;;4.57;;
12177;SDS011;6152;48.728;9.256;2022-10-31T13:02:50;10.18;;;4.40;;
12177;SDS011;6152;48.728;9.256;2022-10-31T13:08:10;6.60;;;4.20;;
12177;SDS011;6152;48.728;9.256;2022-10-31T13:13:14;7.75;;;5.03;;
12177;SDS011;6152;48.728;9.256;2022-10-31T13:15:47;6.53;;;4.25;;
12177;SDS011;6152;48.728;9.256;2022-10-31T13:18:25;9.20;;;4.32;;
12177;SDS011;6152;48.728;9.256;2022-10-31T13:20:55;5.78;;;4.05;;
12177;SDS011;6152;48.728;9.256;2022-10-31T13:23:30;4.05;;;3.35;;
12177;SDS011;6152;48.728;9.256;2022-10-31T13:25:59;11.38;;;4.50;;
12177;SDS011;6152;48.728;9.256;2022-10-31T13:31:12;6.47;;;4.00;;
12177;SDS011;6152;48.728;9.256;2022-10-31T13:33:49;6.05;;;4.22;;
12177;SDS011;6152;48.728;9.256;2022-10-31T13:44:16;8.32;;;4.05;;
12177;SDS011;6152;48.728;9.256;2022-10-31T13:46:45;6.03;;;4.00;;
12177;SDS011;6152;48.728;9.256;2022-10-31T13:51:53;26.40;;;18.17;;
12177;SDS011;6152;48.728;9.256;2022-10-31T13:54:38;59.10;;;42.92;;
12177;SDS011;6152;48.728;9.256;2022-10-31T13:57:07;92.75;;;65.45;;
12177;SDS011;6152;48.728;9.256;2022-10-31T13:59:45;85.30;;;57.70;;
12177;SDS011;6152;48.728;9.256;2022-10-31T14:02:25;54.75;;;37.85;;
12177;SDS011;6152;48.728;9.256;2022-10-31T14:04:57;54.03;;;38.03;;
12177;SDS011;6152;48.728;9.256;2022-10-31T14:07:26;46.08;;;32.28;;
12177;SDS011;6152;48.728;9.256;2022-10-31T14:12:24;16.45;;;11.35;;
12177;SDS011;6152;48.728;9.256;2022-10-31T14:15:02;16.00;;;9.85;;
12177;SDS011;6152;48.728;9.256;2022-10-31T14:17:29;18.27;;;12.25;;
12177;SDS011;6152;48.728;9.256;2022-10-31T14:22:35;32.58;;;24.83;;
12177;SDS011;6152;48.728;9.256;2022-10-31T14:27:57;25.83;;;17.80;;
12177;SDS011;6152;48.728;9.256;2022-10-31T14:30:26;16.77;;;13.45;;
12177;SDS011;6152;48.728;9.256;2022-10-31T14:32:58;21.23;;;15.02;;
12177;SDS011;6152;48.728;9.256;2022-10-31T14:35:30;21.52;;;14.80;;
12177;SDS011;6152;48.728;9.256;2022-10-31T14:43:49;15.50;;;9.25;;
12177;SDS011;6152;48.728;9.256;2022-10-31T14:46:32;12.82;;;6.60;;
12177;SDS011;6152;48.728;9.256;2022-10-31T14:51:56;7.88;;;5.60;;
12177;SDS011;6152;48.728;9.256;2022-10-31T14:54:40;10.55;;;5.25;;
12177;SDS011;6152;48.728;9.256;2022-10-31T14:57:14;10.73;;;6.03;;
12177;SDS011;6152;48.728;9.256;2022-10-31T14:59:48;8.57;;;5.47;;
12177;SDS011;6152;48.728;9.256;2022-10-31T15:02:31;10.15;;;4.35;;
12177;SDS011;6152;48.728;9.256;2022-10-31T15:05:12;11.77;;;5.10;;
12177;SDS011;6152;48.728;9.256;2022-10-31T15:07:57;12.77;;;4.65;;
12177;SDS011;6152;48.728;9.256;2022-10-31T15:10:28;8.88;;;4.60;;
12177;SDS011;6152;48.728;9.256;2022-10-31T15:13:08;8.88;;;4.38;;
12177;SDS011;6152;48.728;9.256;2022-10-31T15:15:35;8.20;;;4.60;;
12177;SDS011;6152;48.728;9.256;2022-10-31T15:18:03;8.38;;;4.45;;
12177;SDS011;6152;48.728;9.256;2022-10-31T15:20:33;8.57;;;4.47;;
12177;SDS011;6152;48.728;9.256;2022-10-31T15:23:29;7.20;;;4.35;;
12177;SDS011;6152;48.728;9.256;2022-10-31T15:25:58;10.23;;;3.97;;
12177;SDS011;6152;48.728;9.256;2022-10-31T15:28:25;9.30;;;4.50;;
12177;SDS011;6152;48.728;9.256;2022-10-31T15:30:53;9.32;;;3.90;;
12177;SDS011;6152;48.728;9.256;2022-10-31T15:33:22;10.68;;;4.13;;
12177;SDS011;6152;48.728;9.256;2022-10-31T15:35:54;7.45;;;4.10;;
12177;SDS011;6152;48.728;9.256;2022-10-31T15:38:27;9.07;;;4.60;;
12177;SDS011;6152;48.728;9.256;2022-10-31T15:40:55;8.77;;;4.15;;
12177;SDS011;6152;48.728;9.256;2022-10-31T15:43:32;8.73;;;3.80;;
12177;SDS011;6152;48.728;9.256;2022-10-31T15:46:01;8.43;;;4.80;;
12177;SDS011;6152;48.728;9.256;2022-10-31T15:48:29;9.80;;;4.90;;
12177;SDS011;6152;48.728;9.256;2022-10-31T15:50:59;14.77;;;4.72;;
12177;SDS011;6152;48.728;9.256;2022-10-31T15:53:32;8.02;;;4.95;;
12177;SDS011;6152;48.728;9.256;2022-10-31T15:56:10;5.82;;;5.03;;
12177;SDS011;6152;48.728;9.256;2022-10-31T15:58:44;11.07;;;6.05;;
12177;SDS011;6152;48.728;9.256;2022-10-31T16:01:23;12.63;;;5.57;;
12177;SDS011;6152;48.728;9.256;2022-10-31T16:06:35;9.25;;;5.03;;
12177;SDS011;6152;48.728;9.256;2022-10-31T16:09:03;8.40;;;5.07;;
12177;SDS011;6152;48.728;9.256;2022-10-31T16:11:45;10.48;;;5.53;;
12177;SDS011;6152;48.728;9.256;2022-10-31T16:16:42;11.02;;;5.13;;
12177;SDS011;6152;48.728;9.256;2022-10-31T16:19:35;11.65;;;5.32;;
12177;SDS011;6152;48.728;9.256;2022-10-31T16:22:06;10.65;;;5.28;;
12177;SDS011;6152;48.728;9.256;2022-10-31T16:24:49;8.77;;;4.70;;
12177;SDS011;6152;48.728;9.256;2022-10-31T16:27:19;10.50;;;4.97;;
12177;SDS011;6152;48.728;9.256;2022-10-31T16:29:53;9.18;;;5.30;;
12177;SDS011;6152;48.728;9.256;2022-10-31T16:32:32;11.93;;;5.13;;
12177;SDS011;6152;48.728;9.256;2022-10-31T16:35:01;11.68;;;5.28;;
12177;SDS011;6152;48.728;9.256;2022-10-31T16:37:36;8.75;;;5.60;;
12177;SDS011;6152;48.728;9.256;2022-10-31T16:40:06;14.75;;;5.05;;
12177;SDS011;6152;48.728;9.256;2022-10-31T16:42:34;12.70;;;6.03;;
12177;SDS011;6152;48.728;9.256;2022-10-31T16:45:00;10.00;;;5.97;;
12177;SDS011;6152;48.728;9.256;2022-10-31T16:47:27;11.35;;;5.97;;
12177;SDS011;6152;48.728;9.256;2022-10-31T16:49:53;12.20;;;6.55;;
12177;SDS011;6152;48.728;9.256;2022-10-31T16:52:19;12.15;;;7.03;;
12177;SDS011;6152;48.728;9.256;2022-10-31T16:54:45;15.45;;;7.07;;
12177;SDS011;6152;48.728;9.256;2022-10-31T16:57:13;12.73;;;6.70;;
12177;SDS011;6152;48.728;9.256;2022-10-31T16:59:42;14.20;;;7.80;;
12177;SDS011;6152;48.728;9.256;2022-10-31T17:02:12;11.30;;;7.13;;
12177;SDS011;6152;48.728;9.256;2022-10-31T17:04:41;13.23;;;7.70;;
12177;SDS011;6152;48.728;9.256;2022-10-31T17:07:07;11.07;;;6.88;;
12177;SDS011;6152;48.728;9.256;2022-10-31T17:09:33;11.88;;;7.13;;
12177;SDS011;6152;48.728;9.256;2022-10-31T17:11:59;11.23;;;6.80;;
12177;SDS011;6152;48.728;9.256;2022-10-31T17:14:25;11.32;;;6.93;;
12177;SDS011;6152;48.728;9.256;2022-10-31T17:16:52;12.45;;;6.97;;
12177;SDS011;6152;48.728;9.256;2022-10-31T17:19:18;14.90;;;6.95;;
12177;SDS011;6152;48.728;9.256;2022-10-31T17:21:44;12.70;;;7.15;;
12177;SDS011;6152;48.728;9.256;2022-10-31T17:24:14;15.80;;;7.47;;
12177;SDS011;6152;48.728;9.256;2022-10-31T17:26:40;14.98;;;7.13;;
12177;SDS011;6152;48.728;9.256;2022-10-31T17:29:06;11.13;;;6.57;;
12177;SDS011;6152;48.728;9.256;2022-10-31T17:31:33;12.85;;;6.88;;
12177;SDS011;6152;48.728;9.256;2022-10-31T17:34:00;15.00;;;7.90;;
12177;SDS011;6152;48.728;9.256;2022-10-31T17:36:29;11.85;;;7.90;;
12177;SDS011;6152;48.728;9.256;2022-10-31T17:38:56;12.05;;;7.45;;
12177;SDS011;6152;48.728;9.256;2022-10-31T17:41:23;12.45;;;7.28;;
12177;SDS011;6152;48.728;9.256;2022-10-31T17:43:53;11.57;;;6.78;;
12177;SDS011;6152;48.728;9.256;2022-10-31T17:46:20;16.25;;;7.70;;